Elbow Lake, Minnesota
Current Conditions -  °F | °C
As of 7:17 PM on Monday 26 Jan 2015 (Local Time) from KY63 Reporting Station
Broken Clouds Broken Clouds  
Wind Chill: 19°   Ceiling: 1000
Heat Index: 31°   Visibility: 10mi
Dew Point: 28°   Wind: 17mph
Humidity: 92%   Direction: 340°NNW
Pressure: 29.95"   Gusts: 23mph
Location:  45.99°N, 95.98°W
Report Text: KY63 270117Z AUTO 34015G20KT 10SM BKN010 BKN120 M01/M02 A2995 RMK AO2 T10081020
Loading
Personal Weather Stations






























Interactive Weather Map New forecast layout! Learn more

10-Day Weather Forecast

Advertisements
Track Severe Weather on mobile